TAF LEVS
LEVS 270500Z 2706/2806 34008KT 9999 FEW045 TX10/2714Z TN01/2802Z PROB30 TEMPO 2706/2712 26010KT PROB30 TEMPO 2712/2719 34015G25KT RADZ=
METAR LEVS
LEVS 270800Z 25011KT 9999 FEW065 SCT075 05/01 Q1005=
LEVS 270730Z 23008KT 9999 BKN065 04/01 Q1005=
LEVS 270700Z 27008KT 9999 SCT060 03/00 Q1005=
LEVS 270630Z 24009KT CAVOK 03/00 Q1005=
LEVS 270600Z 25008KT CAVOK 03/00 Q1006=
WC LEVS
WS LEVS
WV LEVS